sensor_id;sensor_type;location;lat;lon;timestamp;pressure;altitude;pressure_sealevel;temperature;humidity
16595;BME280;8410;52.532;13.336;2022-10-28T00:00:48;101719.75;;;16.71;90.23
16595;BME280;8410;52.532;13.336;2022-10-28T00:03:16;101730.28;;;17.22;89.48
16595;BME280;8410;52.532;13.336;2022-10-28T00:05:44;101724.19;;;17.33;87.94
16595;BME280;8410;52.532;13.336;2022-10-28T00:08:12;101723.09;;;16.42;93.23
16595;BME280;8410;52.532;13.336;2022-10-28T00:10:39;101720.72;;;17.11;90.70
16595;BME280;8410;52.532;13.336;2022-10-28T00:13:07;101725.91;;;17.25;88.14
16595;BME280;8410;52.532;13.336;2022-10-28T00:15:34;101728.53;;;17.50;88.15
16595;BME280;8410;52.532;13.336;2022-10-28T00:18:03;101735.47;;;17.48;87.33
16595;BME280;8410;52.532;13.336;2022-10-28T00:20:30;101751.97;;;17.51;86.75
16595;BME280;8410;52.532;13.336;2022-10-28T00:22:58;101743.28;;;17.31;87.16
16595;BME280;8410;52.532;13.336;2022-10-28T00:25:25;101732.88;;;17.41;86.47
16595;BME280;8410;52.532;13.336;2022-10-28T00:27:52;101737.19;;;17.39;86.95
16595;BME280;8410;52.532;13.336;2022-10-28T00:30:20;101731.13;;;17.27;87.13
16595;BME280;8410;52.532;13.336;2022-10-28T00:32:48;101739.81;;;17.49;86.64
16595;BME280;8410;52.532;13.336;2022-10-28T00:35:17;101732.88;;;17.57;86.15
16595;BME280;8410;52.532;13.336;2022-10-28T00:37:44;101733.75;;;17.44;86.95
16595;BME280;8410;52.532;13.336;2022-10-28T00:40:12;101741.91;;;15.95;92.54
16595;BME280;8410;52.532;13.336;2022-10-28T00:42:39;101733.50;;;16.39;94.77
16595;BME280;8410;52.532;13.336;2022-10-28T00:45:08;101730.25;;;17.11;89.85
16595;BME280;8410;52.532;13.336;2022-10-28T00:47:41;101725.94;;;17.19;88.52
16595;BME280;8410;52.532;13.336;2022-10-28T00:50:14;101714.66;;;17.11;88.68
16595;BME280;8410;52.532;13.336;2022-10-28T00:52:46;101716.41;;;17.24;88.56
16595;BME280;8410;52.532;13.336;2022-10-28T00:55:17;101712.03;;;17.46;87.40
16595;BME280;8410;52.532;13.336;2022-10-28T00:57:45;101721.59;;;17.36;87.94
16595;BME280;8410;52.532;13.336;2022-10-28T01:00:14;101716.38;;;17.39;87.94
16595;BME280;8410;52.532;13.336;2022-10-28T01:02:44;101711.16;;;17.39;88.25
16595;BME280;8410;52.532;13.336;2022-10-28T01:05:15;101705.13;;;17.48;87.09
16595;BME280;8410;52.532;13.336;2022-10-28T01:07:45;101705.09;;;17.47;87.15
16595;BME280;8410;52.532;13.336;2022-10-28T01:10:13;101707.69;;;17.50;86.76
16595;BME280;8410;52.532;13.336;2022-10-28T01:12:51;101710.31;;;17.40;87.50
16595;BME280;8410;52.532;13.336;2022-10-28T01:15:28;101708.56;;;17.53;85.87
16595;BME280;8410;52.532;13.336;2022-10-28T01:18:07;101707.69;;;17.47;87.95
16595;BME280;8410;52.532;13.336;2022-10-28T01:21:20;101705.94;;;16.87;88.32
16595;BME280;8410;52.532;13.336;2022-10-28T01:24:04;101696.41;;;17.15;89.32
16595;BME280;8410;52.532;13.336;2022-10-28T01:26:51;101690.38;;;17.30;88.81
16595;BME280;8410;52.532;13.336;2022-10-28T01:30:00;101698.16;;;17.38;89.05
16595;BME280;8410;52.532;13.336;2022-10-28T01:32:36;101697.31;;;17.37;88.12
16595;BME280;8410;52.532;13.336;2022-10-28T01:35:14;101695.56;;;17.30;87.46
16595;BME280;8410;52.532;13.336;2022-10-28T01:37:48;101697.28;;;17.34;87.56
16595;BME280;8410;52.532;13.336;2022-10-28T01:40:24;101693.81;;;17.31;88.13
16595;BME280;8410;52.532;13.336;2022-10-28T01:43:02;101686.03;;;17.38;87.11
16595;BME280;8410;52.532;13.336;2022-10-28T01:45:36;101690.38;;;17.27;88.06
16595;BME280;8410;52.532;13.336;2022-10-28T01:48:10;101682.53;;;17.36;87.84
16595;BME280;8410;52.532;13.336;2022-10-28T01:50:46;101681.69;;;17.22;87.81
16595;BME280;8410;52.532;13.336;2022-10-28T01:53:26;101679.94;;;16.93;94.09
16595;BME280;8410;52.532;13.336;2022-10-28T01:55:58;101683.44;;;17.32;89.75
16595;BME280;8410;52.532;13.336;2022-10-28T01:58:29;101684.25;;;17.57;91.82
16595;BME280;8410;52.532;13.336;2022-10-28T02:00:59;101670.38;;;17.63;89.93
16595;BME280;8410;52.532;13.336;2022-10-28T02:03:32;101667.75;;;17.68;87.06
16595;BME280;8410;52.532;13.336;2022-10-28T02:06:01;101673.00;;;17.46;87.16
16595;BME280;8410;52.532;13.336;2022-10-28T02:08:37;101671.25;;;17.34;88.03
16595;BME280;8410;52.532;13.336;2022-10-28T02:11:49;101666.06;;;17.10;89.77
16595;BME280;8410;52.532;13.336;2022-10-28T02:14:32;101669.50;;;17.42;91.93
16595;BME280;8410;52.532;13.336;2022-10-28T02:17:09;101664.31;;;17.55;87.00
16595;BME280;8410;52.532;13.336;2022-10-28T02:19:48;101673.88;;;17.30;87.74
16595;BME280;8410;52.532;13.336;2022-10-28T02:22:19;101669.53;;;17.39;86.87
16595;BME280;8410;52.532;13.336;2022-10-28T02:24:54;101662.59;;;17.26;87.59
16595;BME280;8410;52.532;13.336;2022-10-28T02:27:31;101671.25;;;17.16;87.72
16595;BME280;8410;52.532;13.336;2022-10-28T02:30:04;101668.66;;;17.02;88.13
16595;BME280;8410;52.532;13.336;2022-10-28T02:32:35;101674.72;;;16.90;89.19
16595;BME280;8410;52.532;13.336;2022-10-28T02:35:10;101679.06;;;16.85;89.66
16595;BME280;8410;52.532;13.336;2022-10-28T02:37:40;101678.19;;;17.05;88.59
16595;BME280;8410;52.532;13.336;2022-10-28T02:40:13;101683.41;;;16.95;89.14
16595;BME280;8410;52.532;13.336;2022-10-28T02:42:45;101670.38;;;17.08;88.85
16595;BME280;8410;52.532;13.336;2022-10-28T02:45:16;101664.31;;;16.90;88.16
16595;BME280;8410;52.532;13.336;2022-10-28T02:47:47;101661.72;;;17.04;87.91
16595;BME280;8410;52.532;13.336;2022-10-28T02:50:21;101666.06;;;17.04;88.39
16595;BME280;8410;52.532;13.336;2022-10-28T02:52:55;101671.19;;;16.58;89.68
16595;BME280;8410;52.532;13.336;2022-10-28T02:55:28;101664.25;;;16.75;89.57
16595;BME280;8410;52.532;13.336;2022-10-28T02:57:58;101672.94;;;16.71;89.56
16595;BME280;8410;52.532;13.336;2022-10-28T03:00:26;101672.03;;;16.67;88.98
16595;BME280;8410;52.532;13.336;2022-10-28T03:02:53;101678.97;;;16.73;89.70
16595;BME280;8410;52.532;13.336;2022-10-28T03:05:22;101665.13;;;16.74;90.07
16595;BME280;8410;52.532;13.336;2022-10-28T03:07:49;101674.69;;;16.81;89.49
16595;BME280;8410;52.532;13.336;2022-10-28T03:10:17;101672.78;;;16.23;92.28
16595;BME280;8410;52.532;13.336;2022-10-28T03:12:45;101668.56;;;16.61;90.81
16595;BME280;8410;52.532;13.336;2022-10-28T03:15:12;101660.81;;;16.74;89.18
16595;BME280;8410;52.532;13.336;2022-10-28T03:17:40;101659.03;;;16.53;90.92
16595;BME280;8410;52.532;13.336;2022-10-28T03:20:08;101654.69;;;16.52;90.95
16595;BME280;8410;52.532;13.336;2022-10-28T03:22:37;101652.06;;;16.51;91.15
16595;BME280;8410;52.532;13.336;2022-10-28T03:25:05;101652.09;;;16.49;90.29
16595;BME280;8410;52.532;13.336;2022-10-28T03:27:33;101648.66;;;16.63;91.19
16595;BME280;8410;52.532;13.336;2022-10-28T03:30:00;101651.25;;;16.61;90.85
16595;BME280;8410;52.532;13.336;2022-10-28T03:32:27;101662.50;;;16.62;90.46
16595;BME280;8410;52.532;13.336;2022-10-28T03:34:55;101665.13;;;16.75;90.97
16595;BME280;8410;52.532;13.336;2022-10-28T03:37:22;101671.19;;;16.61;90.38
16595;BME280;8410;52.532;13.336;2022-10-28T03:39:51;101676.38;;;16.61;90.89
16595;BME280;8410;52.532;13.336;2022-10-28T03:42:18;101683.31;;;16.68;90.60
16595;BME280;8410;52.532;13.336;2022-10-28T03:44:46;101678.97;;;16.58;89.79
16595;BME280;8410;52.532;13.336;2022-10-28T03:47:13;101672.06;;;16.66;90.69
16595;BME280;8410;52.532;13.336;2022-10-28T03:49:41;101665.94;;;16.50;89.50
16595;BME280;8410;52.532;13.336;2022-10-28T03:52:08;101672.81;;;16.34;90.91
16595;BME280;8410;52.532;13.336;2022-10-28T03:54:35;101668.47;;;16.28;90.93
16595;BME280;8410;52.532;13.336;2022-10-28T03:57:04;101667.63;;;16.31;92.10
16595;BME280;8410;52.532;13.336;2022-10-28T03:59:32;101670.22;;;16.36;91.70
16595;BME280;8410;52.532;13.336;2022-10-28T04:01:59;101662.44;;;16.43;90.51
16595;BME280;8410;52.532;13.336;2022-10-28T04:04:26;101653.81;;;16.49;90.64
16595;BME280;8410;52.532;13.336;2022-10-28T04:06:56;101648.63;;;16.47;90.65
16595;BME280;8410;52.532;13.336;2022-10-28T04:09:23;101653.75;;;16.29;90.43
16595;BME280;8410;52.532;13.336;2022-10-28T04:11:50;101657.22;;;16.26;90.99
16595;BME280;8410;52.532;13.336;2022-10-28T04:14:19;101646.78;;;16.25;90.67
16595;BME280;8410;52.532;13.336;2022-10-28T04:16:47;101651.97;;;16.19;92.63
16595;BME280;8410;52.532;13.336;2022-10-28T04:19:14;101658.94;;;16.26;91.71
16595;BME280;8410;52.532;13.336;2022-10-28T04:21:41;101661.53;;;16.24;91.68
16595;BME280;8410;52.532;13.336;2022-10-28T04:24:09;101660.66;;;16.18;92.34
16595;BME280;8410;52.532;13.336;2022-10-28T04:26:36;101658.97;;;16.32;91.75
16595;BME280;8410;52.532;13.336;2022-10-28T04:29:04;101656.41;;;16.41;91.43
16595;BME280;8410;52.532;13.336;2022-10-28T04:31:33;101652.06;;;16.40;91.91
16595;BME280;8410;52.532;13.336;2022-10-28T04:34:00;101645.97;;;16.34;91.16
16595;BME280;8410;52.532;13.336;2022-10-28T04:36:27;101646.84;;;16.40;90.95
16595;BME280;8410;52.532;13.336;2022-10-28T04:38:55;101651.97;;;16.16;91.51
16595;BME280;8410;52.532;13.336;2022-10-28T04:41:22;101651.97;;;16.09;91.61
16595;BME280;8410;52.532;13.336;2022-10-28T04:43:50;101650.25;;;16.15;92.69
16595;BME280;8410;52.532;13.336;2022-10-28T04:46:17;101650.28;;;16.24;91.26
16595;BME280;8410;52.532;13.336;2022-10-28T04:48:46;101645.06;;;16.18;91.13
16595;BME280;8410;52.532;13.336;2022-10-28T04:51:14;101634.69;;;16.21;91.74
16595;BME280;8410;52.532;13.336;2022-10-28T04:53:41;101636.38;;;16.09;91.56
16595;BME280;8410;52.532;13.336;2022-10-28T04:56:09;101643.22;;;15.94;92.50
16595;BME280;8410;52.532;13.336;2022-10-28T04:58:36;101638.09;;;16.04;92.45
16595;BME280;8410;52.532;13.336;2022-10-28T05:01:04;101644.97;;;15.96;93.44
16595;BME280;8410;52.532;13.336;2022-10-28T05:03:32;101647.63;;;16.10;93.16
16595;BME280;8410;52.532;13.336;2022-10-28T05:06:01;101646.78;;;16.22;91.94
16595;BME280;8410;52.532;13.336;2022-10-28T05:08:29;101639.81;;;16.05;92.66
16595;BME280;8410;52.532;13.336;2022-10-28T05:10:56;101632.91;;;16.20;91.75
16595;BME280;8410;52.532;13.336;2022-10-28T05:13:23;101639.84;;;16.10;91.72
16595;BME280;8410;52.532;13.336;2022-10-28T05:15:51;101640.63;;;15.98;92.88
16595;BME280;8410;52.532;13.336;2022-10-28T05:18:18;101635.50;;;16.10;92.35
16595;BME280;8410;52.532;13.336;2022-10-28T05:20:46;101632.06;;;16.22;91.55
16595;BME280;8410;52.532;13.336;2022-10-28T05:23:19;101630.31;;;16.14;91.95
16595;BME280;8410;52.532;13.336;2022-10-28T05:25:46;101617.09;;;15.68;93.55
16595;BME280;8410;52.532;13.336;2022-10-28T05:28:14;101609.44;;;15.89;92.92
16595;BME280;8410;52.532;13.336;2022-10-28T05:30:42;101628.44;;;15.85;93.07
16595;BME280;8410;52.532;13.336;2022-10-28T05:33:09;101619.84;;;15.94;92.91
16595;BME280;8410;52.532;13.336;2022-10-28T05:35:37;101624.13;;;15.84;92.76
16595;BME280;8410;52.532;13.336;2022-10-28T05:38:05;101621.53;;;15.90;93.86
16595;BME280;8410;52.532;13.336;2022-10-28T05:40:34;101619.81;;;15.89;92.59
16595;BME280;8410;52.532;13.336;2022-10-28T05:43:01;101615.50;;;15.91;93.94
16595;BME280;8410;52.532;13.336;2022-10-28T05:45:29;101621.56;;;15.85;93.54
16595;BME280;8410;52.532;13.336;2022-10-28T05:47:57;101629.38;;;15.96;93.44
16595;BME280;8410;52.532;13.336;2022-10-28T05:50:25;101623.34;;;16.05;93.09
16595;BME280;8410;52.532;13.336;2022-10-28T05:52:54;101613.88;;;16.18;92.65
16595;BME280;8410;52.532;13.336;2022-10-28T05:55:23;101617.38;;;16.29;94.51
16595;BME280;8410;52.532;13.336;2022-10-28T05:57:55;101612.22;;;16.60;100.00
16595;BME280;8410;52.532;13.336;2022-10-28T06:00:24;101615.66;;;16.31;94.91
16595;BME280;8410;52.532;13.336;2022-10-28T06:02:52;101613.97;;;16.73;92.15
16595;BME280;8410;52.532;13.336;2022-10-28T06:05:20;101610.53;;;16.72;89.66
16595;BME280;8410;52.532;13.336;2022-10-28T06:07:47;101622.63;;;16.50;91.27
16595;BME280;8410;52.532;13.336;2022-10-28T06:10:15;101608.78;;;16.58;91.52
16595;BME280;8410;52.532;13.336;2022-10-28T06:12:42;101605.31;;;16.62;91.45
16595;BME280;8410;52.532;13.336;2022-10-28T06:15:11;101594.00;;;16.26;92.42
16595;BME280;8410;52.532;13.336;2022-10-28T06:17:38;101596.59;;;16.35;91.96
16595;BME280;8410;52.532;13.336;2022-10-28T06:20:06;101594.88;;;16.43;92.30
16595;BME280;8410;52.532;13.336;2022-10-28T06:22:34;101593.16;;;16.36;92.29
16595;BME280;8410;52.532;13.336;2022-10-28T06:25:02;101595.78;;;16.58;92.66
16595;BME280;8410;52.532;13.336;2022-10-28T06:27:29;101592.28;;;16.51;92.34
16595;BME280;8410;52.532;13.336;2022-10-28T06:29:56;101595.81;;;16.68;92.03
16595;BME280;8410;52.532;13.336;2022-10-28T06:32:25;101593.19;;;16.64;91.94
16595;BME280;8410;52.532;13.336;2022-10-28T06:34:53;101592.28;;;16.39;91.93
16595;BME280;8410;52.532;13.336;2022-10-28T06:37:20;101595.78;;;16.47;92.56
16595;BME280;8410;52.532;13.336;2022-10-28T06:39:47;101588.00;;;16.58;92.98
16595;BME280;8410;52.532;13.336;2022-10-28T06:42:18;101590.53;;;16.31;93.87
16595;BME280;8410;52.532;13.336;2022-10-28T06:44:45;101580.22;;;16.85;92.12
16595;BME280;8410;52.532;13.336;2022-10-28T06:47:13;101577.63;;;16.87;91.24
16595;BME280;8410;52.532;13.336;2022-10-28T06:49:41;101584.56;;;16.83;90.63
16595;BME280;8410;52.532;13.336;2022-10-28T06:52:09;101598.38;;;16.70;91.97
16595;BME280;8410;52.532;13.336;2022-10-28T06:54:36;101606.22;;;16.78;90.83
16595;BME280;8410;52.532;13.336;2022-10-28T06:57:04;101598.44;;;17.01;91.08
16595;BME280;8410;52.532;13.336;2022-10-28T06:59:31;101593.19;;;16.54;91.83
16595;BME280;8410;52.532;13.336;2022-10-28T07:01:59;101605.34;;;16.83;91.89
16595;BME280;8410;52.532;13.336;2022-10-28T07:04:26;101609.59;;;16.30;92.79
16595;BME280;8410;52.532;13.336;2022-10-28T07:06:56;101615.66;;;16.28;92.88
16595;BME280;8410;52.532;13.336;2022-10-28T07:09:24;101619.88;;;16.01;95.62
16595;BME280;8410;52.532;13.336;2022-10-28T07:11:51;101626.19;;;16.85;93.53
16595;BME280;8410;52.532;13.336;2022-10-28T07:14:20;101613.16;;;16.77;92.85
16595;BME280;8410;52.532;13.336;2022-10-28T07:16:48;101604.44;;;16.64;94.29
16595;BME280;8410;52.532;13.336;2022-10-28T07:19:15;101597.56;;;17.11;92.09
16595;BME280;8410;52.532;13.336;2022-10-28T07:21:47;101594.94;;;17.35;90.98
16595;BME280;8410;52.532;13.336;2022-10-28T07:24:16;101594.88;;;17.54;89.17
16595;BME280;8410;52.532;13.336;2022-10-28T07:26:46;101592.25;;;17.60;88.34
16595;BME280;8410;52.532;13.336;2022-10-28T07:29:13;101606.16;;;17.62;88.97
16595;BME280;8410;52.532;13.336;2022-10-28T07:31:41;101612.22;;;17.67;88.02
16595;BME280;8410;52.532;13.336;2022-10-28T07:34:08;101607.84;;;17.75;87.63
16595;BME280;8410;52.532;13.336;2022-10-28T07:36:36;101612.16;;;17.82;87.92
16595;BME280;8410;52.532;13.336;2022-10-28T07:39:04;101611.44;;;16.81;89.91
16595;BME280;8410;52.532;13.336;2022-10-28T07:41:32;101614.91;;;17.12;90.92
16595;BME280;8410;52.532;13.336;2022-10-28T07:44:00;101602.63;;;17.81;87.74
16595;BME280;8410;52.532;13.336;2022-10-28T07:46:27;101594.72;;;18.03;86.96
16595;BME280;8410;52.532;13.336;2022-10-28T07:48:55;101610.34;;;18.03;86.92
16595;BME280;8410;52.532;13.336;2022-10-28T07:51:22;101613.81;;;18.08;85.65
16595;BME280;8410;52.532;13.336;2022-10-28T07:53:49;101607.66;;;18.21;86.12
16595;BME280;8410;52.532;13.336;2022-10-28T07:56:17;101604.13;;;18.35;84.99
16595;BME280;8410;52.532;13.336;2022-10-28T07:58:46;101599.75;;;18.40;84.76
16595;BME280;8410;52.532;13.336;2022-10-28T08:01:16;101595.41;;;18.42;85.37
16595;BME280;8410;52.532;13.336;2022-10-28T08:03:44;101602.31;;;18.47;84.34
16595;BME280;8410;52.532;13.336;2022-10-28T08:06:14;101610.91;;;18.57;84.73
16595;BME280;8410;52.532;13.336;2022-10-28T08:08:43;101615.13;;;18.81;83.64
16595;BME280;8410;52.532;13.336;2022-10-28T08:11:13;101620.38;;;18.72;84.50
16595;BME280;8410;52.532;13.336;2022-10-28T08:13:40;101628.09;;;18.92;84.12
16595;BME280;8410;52.532;13.336;2022-10-28T08:16:10;101618.69;;;18.66;85.71
16595;BME280;8410;52.532;13.336;2022-10-28T08:18:37;101633.44;;;18.70;84.53
16595;BME280;8410;52.532;13.336;2022-10-28T08:21:07;101633.47;;;18.66;84.71
16595;BME280;8410;52.532;13.336;2022-10-28T08:23:35;101627.91;;;19.16;84.23
16595;BME280;8410;52.532;13.336;2022-10-28T08:26:04;101613.94;;;19.21;84.94
16595;BME280;8410;52.532;13.336;2022-10-28T08:28:31;101595.09;;;19.76;81.10
16595;BME280;8410;52.532;13.336;2022-10-28T08:30:59;101600.50;;;19.57;82.84
16595;BME280;8410;52.532;13.336;2022-10-28T08:33:38;101617.19;;;19.43;83.93
16595;BME280;8410;52.532;13.336;2022-10-28T08:36:08;101626.53;;;19.67;83.39
16595;BME280;8410;52.532;13.336;2022-10-28T08:38:35;101627.06;;;19.11;84.32
16595;BME280;8410;52.532;13.336;2022-10-28T08:41:27;101635.81;;;19.04;85.12
16595;BME280;8410;52.532;13.336;2022-10-28T08:44:10;101632.59;;;18.68;87.12
16595;BME280;8410;52.532;13.336;2022-10-28T08:46:55;101637.50;;;19.08;85.13
16595;BME280;8410;52.532;13.336;2022-10-28T08:49:29;101623.22;;;19.49;82.48
16595;BME280;8410;52.532;13.336;2022-10-28T08:52:01;101614.81;;;19.20;84.62
16595;BME280;8410;52.532;13.336;2022-10-28T08:54:35;101619.22;;;19.13;85.77
16595;BME280;8410;52.532;13.336;2022-10-28T08:57:10;101631.13;;;19.42;82.32
16595;BME280;8410;52.532;13.336;2022-10-28T08:59:44;101630.09;;;19.56;82.70
16595;BME280;8410;52.532;13.336;2022-10-28T09:02:17;101629.06;;;19.76;82.78
16595;BME280;8410;52.532;13.336;2022-10-28T09:04:52;101631.75;;;19.64;83.14
16595;BME280;8410;52.532;13.336;2022-10-28T09:07:23;101633.53;;;19.61;83.48
16595;BME280;8410;52.532;13.336;2022-10-28T09:09:51;101627.63;;;19.44;85.07
16595;BME280;8410;52.532;13.336;2022-10-28T09:12:31;101619.03;;;19.31;85.30
16595;BME280;8410;52.532;13.336;2022-10-28T09:15:15;101603.19;;;19.51;85.16
16595;BME280;8410;52.532;13.336;2022-10-28T09:17:51;101605.06;;;19.38;84.72
16595;BME280;8410;52.532;13.336;2022-10-28T09:20:29;101596.19;;;19.55;84.55
16595;BME280;8410;52.532;13.336;2022-10-28T09:23:05;101591.59;;;19.77;82.75
16595;BME280;8410;52.532;13.336;2022-10-28T09:25:39;101581.34;;;19.57;82.88
16595;BME280;8410;52.532;13.336;2022-10-28T09:28:25;101576.91;;;19.65;83.52
16595;BME280;8410;52.532;13.336;2022-10-28T09:30:59;101581.25;;;19.68;83.68
16595;BME280;8410;52.532;13.336;2022-10-28T09:33:41;101583.97;;;19.57;83.31
16595;BME280;8410;52.532;13.336;2022-10-28T09:36:18;101577.75;;;19.67;84.09
16595;BME280;8410;52.532;13.336;2022-10-28T09:38:50;101574.91;;;19.87;83.45
16595;BME280;8410;52.532;13.336;2022-10-28T09:41:22;101573.28;;;19.78;82.96
16595;BME280;8410;52.532;13.336;2022-10-28T09:43:53;101583.22;;;19.44;84.74
16595;BME280;8410;52.532;13.336;2022-10-28T09:46:25;101579.50;;;19.67;82.93
16595;BME280;8410;52.532;13.336;2022-10-28T09:49:03;101575.00;;;19.78;83.18
16595;BME280;8410;52.532;13.336;2022-10-28T09:51:40;101579.47;;;19.73;83.41
16595;BME280;8410;52.532;13.336;2022-10-28T09:54:11;101578.28;;;19.97;82.93
16595;BME280;8410;52.532;13.336;2022-10-28T09:56:39;101566.94;;;19.96;82.74
16595;BME280;8410;52.532;13.336;2022-10-28T09:59:11;101567.59;;;20.12;81.76
16595;BME280;8410;52.532;13.336;2022-10-28T10:01:41;101560.91;;;19.91;82.84
16595;BME280;8410;52.532;13.336;2022-10-28T10:04:16;101559.88;;;20.04;82.21
16595;BME280;8410;52.532;13.336;2022-10-28T10:06:48;101551.59;;;20.35;80.28
16595;BME280;8410;52.532;13.336;2022-10-28T10:09:20;101555.13;;;20.33;80.40
16595;BME280;8410;52.532;13.336;2022-10-28T10:11:51;101546.25;;;20.43;80.69
16595;BME280;8410;52.532;13.336;2022-10-28T10:14:24;101550.78;;;20.30;81.53
16595;BME280;8410;52.532;13.336;2022-10-28T10:16:54;101548.16;;;20.32;81.59
16595;BME280;8410;52.532;13.336;2022-10-28T10:19:23;101543.88;;;20.26;81.60
16595;BME280;8410;52.532;13.336;2022-10-28T10:21:53;101547.81;;;20.56;80.57
16595;BME280;8410;52.532;13.336;2022-10-28T10:24:28;101538.25;;;20.52;80.73
16595;BME280;8410;52.532;13.336;2022-10-28T10:26:59;101539.47;;;20.30;80.84
16595;BME280;8410;52.532;13.336;2022-10-28T10:29:28;101546.00;;;20.61;80.53
16595;BME280;8410;52.532;13.336;2022-10-28T10:32:04;101535.66;;;20.54;80.90
16595;BME280;8410;52.532;13.336;2022-10-28T10:34:33;101529.06;;;20.82;79.71
16595;BME280;8410;52.532;13.336;2022-10-28T10:37:02;101529.78;;;20.36;80.95
16595;BME280;8410;52.532;13.336;2022-10-28T10:39:34;101527.56;;;20.67;80.86
16595;BME280;8410;52.532;13.336;2022-10-28T10:42:13;101519.72;;;20.67;79.98
16595;BME280;8410;52.532;13.336;2022-10-28T10:44:42;101521.97;;;20.33;81.31
16595;BME280;8410;52.532;13.336;2022-10-28T10:47:18;101520.31;;;20.83;79.05
16595;BME280;8410;52.532;13.336;2022-10-28T10:49:47;101520.50;;;20.71;80.22
16595;BME280;8410;52.532;13.336;2022-10-28T10:52:19;101510.84;;;20.76;79.95
16595;BME280;8410;52.532;13.336;2022-10-28T10:54:57;101514.88;;;20.96;79.43
16595;BME280;8410;52.532;13.336;2022-10-28T10:57:27;101502.69;;;20.93;78.34
16595;BME280;8410;52.532;13.336;2022-10-28T10:59:55;101491.38;;;21.38;77.82
16595;BME280;8410;52.532;13.336;2022-10-28T11:02:25;101498.78;;;21.14;77.92
16595;BME280;8410;52.532;13.336;2022-10-28T11:04:57;101495.28;;;21.15;78.73
16595;BME280;8410;52.532;13.336;2022-10-28T11:07:27;101492.22;;;21.38;77.89
16595;BME280;8410;52.532;13.336;2022-10-28T11:09:55;101490.00;;;21.18;78.55
16595;BME280;8410;52.532;13.336;2022-10-28T11:12:26;101492.22;;;21.38;77.88
16595;BME280;8410;52.532;13.336;2022-10-28T11:14:56;101493.13;;;21.35;76.93
16595;BME280;8410;52.532;13.336;2022-10-28T11:17:26;101492.41;;;21.27;77.55
16595;BME280;8410;52.532;13.336;2022-10-28T11:19:55;101486.72;;;21.52;77.07
16595;BME280;8410;52.532;13.336;2022-10-28T11:22:37;101487.53;;;21.54;76.88
16595;BME280;8410;52.532;13.336;2022-10-28T11:25:17;101487.94;;;21.32;77.53
16595;BME280;8410;52.532;13.336;2022-10-28T11:27:52;101486.81;;;21.47;76.62
16595;BME280;8410;52.532;13.336;2022-10-28T11:30:37;101483.22;;;21.51;77.18
16595;BME280;8410;52.532;13.336;2022-10-28T11:33:11;101485.63;;;21.62;76.04
16595;BME280;8410;52.532;13.336;2022-10-28T11:36:01;101481.78;;;21.78;74.61
16595;BME280;8410;52.532;13.336;2022-10-28T11:38:43;101481.31;;;21.59;75.43
16595;BME280;8410;52.532;13.336;2022-10-28T11:41:21;101474.38;;;21.96;74.22
16595;BME280;8410;52.532;13.336;2022-10-28T11:43:51;101467.34;;;21.98;74.51
16595;BME280;8410;52.532;13.336;2022-10-28T11:46:32;101469.56;;;22.15;73.32
16595;BME280;8410;52.532;13.336;2022-10-28T11:49:29;101467.81;;;22.15;73.29
16595;BME280;8410;52.532;13.336;2022-10-28T11:52:09;101459.88;;;22.18;72.52
16595;BME280;8410;52.532;13.336;2022-10-28T11:54:48;101462.13;;;21.98;73.59
16595;BME280;8410;52.532;13.336;2022-10-28T11:57:27;101465.09;;;22.21;72.62
16595;BME280;8410;52.532;13.336;2022-10-28T12:00:11;101462.13;;;21.98;73.44
16595;BME280;8410;52.532;13.336;2022-10-28T12:02:53;101466.34;;;21.65;74.82
16595;BME280;8410;52.532;13.336;2022-10-28T12:05:28;101460.19;;;22.05;74.15
16595;BME280;8410;52.532;13.336;2022-10-28T12:08:05;101465.56;;;22.00;73.38
16595;BME280;8410;52.532;13.336;2022-10-28T12:10:47;101471.00;;;21.91;73.70
16595;BME280;8410;52.532;13.336;2022-10-28T12:13:25;101459.31;;;22.06;72.50
16595;BME280;8410;52.532;13.336;2022-10-28T12:15:58;101462.38;;;22.24;72.04
16595;BME280;8410;52.532;13.336;2022-10-28T12:18:31;101452.09;;;22.51;71.11
16595;BME280;8410;52.532;13.336;2022-10-28T12:21:09;101458.09;;;22.56;71.92
16595;BME280;8410;52.532;13.336;2022-10-28T12:23:39;101459.31;;;22.43;71.15
16595;BME280;8410;52.532;13.336;2022-10-28T12:26:12;101458.06;;;22.22;72.85
16595;BME280;8410;52.532;13.336;2022-10-28T12:28:43;101451.13;;;22.19;72.37
16595;BME280;8410;52.532;13.336;2022-10-28T12:31:18;101455.84;;;22.41;71.78
16595;BME280;8410;52.532;13.336;2022-10-28T12:33:49;101445.91;;;22.19;71.99
16595;BME280;8410;52.532;13.336;2022-10-28T12:36:23;101439.44;;;22.67;70.60
16595;BME280;8410;52.532;13.336;2022-10-28T12:38:56;101450.69;;;22.38;71.29
16595;BME280;8410;52.532;13.336;2022-10-28T12:41:42;101446.22;;;22.41;72.33
16595;BME280;8410;52.532;13.336;2022-10-28T12:44:14;101441.31;;;22.28;71.86
16595;BME280;8410;52.532;13.336;2022-10-28T12:46:49;101449.09;;;22.32;71.67
16595;BME280;8410;52.532;13.336;2022-10-28T12:49:24;101434.78;;;22.44;71.52
16595;BME280;8410;52.532;13.336;2022-10-28T12:51:58;101424.63;;;22.97;69.81
16595;BME280;8410;52.532;13.336;2022-10-28T12:54:33;101419.88;;;23.10;69.12
16595;BME280;8410;52.532;13.336;2022-10-28T12:57:10;101410.63;;;22.64;70.72
16595;BME280;8410;52.532;13.336;2022-10-28T12:59:42;101417.31;;;22.43;71.77
16595;BME280;8410;52.532;13.336;2022-10-28T13:02:15;101414.91;;;22.34;71.85
16595;BME280;8410;52.532;13.336;2022-10-28T13:04:45;101424.44;;;22.71;71.03
16595;BME280;8410;52.532;13.336;2022-10-28T13:07:24;101413.03;;;22.72;70.85
16595;BME280;8410;52.532;13.336;2022-10-28T13:10:04;101417.72;;;22.60;70.80
16595;BME280;8410;52.532;13.336;2022-10-28T13:13:04;101415.19;;;22.57;71.12